sensor_id;sensor_type;location;lat;lon;timestamp;P1;durP1;ratioP1;P2;durP2;ratioP2
64816;SDS011;53289;45.602;11.904;2022-12-18T00:00:40;10.32;;;6.30;;
64816;SDS011;53289;45.602;11.904;2022-12-18T00:03:06;11.93;;;7.05;;
64816;SDS011;53289;45.602;11.904;2022-12-18T00:05:33;12.43;;;6.95;;
64816;SDS011;53289;45.602;11.904;2022-12-18T00:07:59;11.00;;;6.40;;
64816;SDS011;53289;45.602;11.904;2022-12-18T00:10:25;11.77;;;6.95;;
64816;SDS011;53289;45.602;11.904;2022-12-18T00:12:52;12.35;;;7.32;;
64816;SDS011;53289;45.602;11.904;2022-12-18T00:15:18;12.98;;;7.20;;
64816;SDS011;53289;45.602;11.904;2022-12-18T00:17:44;11.80;;;7.00;;
64816;SDS011;53289;45.602;11.904;2022-12-18T00:20:10;10.95;;;6.72;;
64816;SDS011;53289;45.602;11.904;2022-12-18T00:22:36;12.57;;;6.38;;
64816;SDS011;53289;45.602;11.904;2022-12-18T00:25:02;13.52;;;7.43;;
64816;SDS011;53289;45.602;11.904;2022-12-18T00:27:28;11.80;;;6.35;;
64816;SDS011;53289;45.602;11.904;2022-12-18T00:29:54;12.18;;;6.18;;
64816;SDS011;53289;45.602;11.904;2022-12-18T00:32:20;11.52;;;6.10;;
64816;SDS011;53289;45.602;11.904;2022-12-18T00:34:46;11.75;;;6.70;;
64816;SDS011;53289;45.602;11.904;2022-12-18T00:37:12;12.00;;;6.65;;
64816;SDS011;53289;45.602;11.904;2022-12-18T00:39:38;11.63;;;7.28;;
64816;SDS011;53289;45.602;11.904;2022-12-18T00:42:04;11.55;;;6.97;;
64816;SDS011;53289;45.602;11.904;2022-12-18T00:44:48;14.38;;;7.30;;
64816;SDS011;53289;45.602;11.904;2022-12-18T00:47:15;13.23;;;7.50;;
64816;SDS011;53289;45.602;11.904;2022-12-18T00:49:41;12.93;;;7.30;;
64816;SDS011;53289;45.602;11.904;2022-12-18T00:52:06;12.95;;;7.60;;
64816;SDS011;53289;45.602;11.904;2022-12-18T00:54:32;12.90;;;7.35;;
64816;SDS011;53289;45.602;11.904;2022-12-18T00:56:58;11.68;;;6.55;;
64816;SDS011;53289;45.602;11.904;2022-12-18T00:59:24;11.90;;;6.60;;
64816;SDS011;53289;45.602;11.904;2022-12-18T01:01:50;11.52;;;7.20;;
64816;SDS011;53289;45.602;11.904;2022-12-18T01:04:16;15.07;;;6.90;;
64816;SDS011;53289;45.602;11.904;2022-12-18T01:06:42;12.05;;;6.97;;
64816;SDS011;53289;45.602;11.904;2022-12-18T01:09:08;10.88;;;6.70;;
64816;SDS011;53289;45.602;11.904;2022-12-18T01:11:34;13.70;;;6.85;;
64816;SDS011;53289;45.602;11.904;2022-12-18T01:14:00;11.63;;;6.60;;
64816;SDS011;53289;45.602;11.904;2022-12-18T01:16:26;11.75;;;6.97;;
64816;SDS011;53289;45.602;11.904;2022-12-18T01:18:53;10.43;;;6.55;;
64816;SDS011;53289;45.602;11.904;2022-12-18T01:21:19;10.82;;;6.07;;
64816;SDS011;53289;45.602;11.904;2022-12-18T01:23:46;11.98;;;7.03;;
64816;SDS011;53289;45.602;11.904;2022-12-18T01:26:17;11.25;;;6.78;;
64816;SDS011;53289;45.602;11.904;2022-12-18T01:28:43;12.45;;;7.00;;
64816;SDS011;53289;45.602;11.904;2022-12-18T01:31:19;10.25;;;6.25;;
64816;SDS011;53289;45.602;11.904;2022-12-18T01:33:50;10.23;;;6.00;;
64816;SDS011;53289;45.602;11.904;2022-12-18T01:36:17;12.27;;;6.80;;
64816;SDS011;53289;45.602;11.904;2022-12-18T01:38:45;10.80;;;6.30;;
64816;SDS011;53289;45.602;11.904;2022-12-18T01:41:12;11.98;;;6.85;;
64816;SDS011;53289;45.602;11.904;2022-12-18T01:43:42;12.98;;;7.22;;
64816;SDS011;53289;45.602;11.904;2022-12-18T01:46:11;11.77;;;6.35;;
64816;SDS011;53289;45.602;11.904;2022-12-18T01:48:38;12.15;;;6.78;;
64816;SDS011;53289;45.602;11.904;2022-12-18T01:51:05;12.02;;;6.85;;
64816;SDS011;53289;45.602;11.904;2022-12-18T01:53:32;11.77;;;6.28;;
64816;SDS011;53289;45.602;11.904;2022-12-18T01:55:59;12.45;;;6.40;;
64816;SDS011;53289;45.602;11.904;2022-12-18T01:58:32;9.68;;;5.72;;
64816;SDS011;53289;45.602;11.904;2022-12-18T02:01:22;12.43;;;6.85;;
64816;SDS011;53289;45.602;11.904;2022-12-18T02:03:48;11.55;;;6.38;;
64816;SDS011;53289;45.602;11.904;2022-12-18T02:06:27;13.35;;;7.00;;
64816;SDS011;53289;45.602;11.904;2022-12-18T02:09:09;12.65;;;6.75;;
64816;SDS011;53289;45.602;11.904;2022-12-18T02:12:03;12.07;;;6.82;;
64816;SDS011;53289;45.602;11.904;2022-12-18T02:14:40;10.65;;;6.18;;
64816;SDS011;53289;45.602;11.904;2022-12-18T02:17:20;13.18;;;6.72;;
64816;SDS011;53289;45.602;11.904;2022-12-18T02:25:02;12.35;;;6.60;;
64816;SDS011;53289;45.602;11.904;2022-12-18T02:27:43;12.25;;;7.10;;
64816;SDS011;53289;45.602;11.904;2022-12-18T02:30:11;12.23;;;6.10;;
64816;SDS011;53289;45.602;11.904;2022-12-18T02:32:42;13.43;;;7.03;;
64816;SDS011;53289;45.602;11.904;2022-12-18T02:35:13;11.90;;;6.72;;
64816;SDS011;53289;45.602;11.904;2022-12-18T02:37:43;10.88;;;6.22;;
64816;SDS011;53289;45.602;11.904;2022-12-18T02:40:11;10.95;;;6.20;;
64816;SDS011;53289;45.602;11.904;2022-12-18T02:42:39;12.70;;;6.60;;
64816;SDS011;53289;45.602;11.904;2022-12-18T02:45:05;9.85;;;6.38;;
64816;SDS011;53289;45.602;11.904;2022-12-18T02:47:32;10.02;;;5.63;;
64816;SDS011;53289;45.602;11.904;2022-12-18T03:06:54;12.07;;;6.80;;
64816;SDS011;53289;45.602;11.904;2022-12-18T03:09:32;9.18;;;5.50;;
64816;SDS011;53289;45.602;11.904;2022-12-18T03:12:06;12.85;;;6.72;;
64816;SDS011;53289;45.602;11.904;2022-12-18T03:17:38;14.57;;;6.30;;
64816;SDS011;53289;45.602;11.904;2022-12-18T03:20:16;10.50;;;5.53;;
64816;SDS011;53289;45.602;11.904;2022-12-18T03:22:45;11.20;;;6.13;;
64816;SDS011;53289;45.602;11.904;2022-12-18T03:25:16;11.07;;;5.97;;
64816;SDS011;53289;45.602;11.904;2022-12-18T03:27:46;9.95;;;5.00;;
64816;SDS011;53289;45.602;11.904;2022-12-18T03:30:16;12.50;;;6.47;;
64816;SDS011;53289;45.602;11.904;2022-12-18T03:32:53;11.32;;;5.82;;
64816;SDS011;53289;45.602;11.904;2022-12-18T03:35:34;11.77;;;6.45;;
64816;SDS011;53289;45.602;11.904;2022-12-18T03:38:02;13.52;;;6.45;;
64816;SDS011;53289;45.602;11.904;2022-12-18T03:40:35;10.63;;;5.97;;
64816;SDS011;53289;45.602;11.904;2022-12-18T03:43:11;10.75;;;5.95;;
64816;SDS011;53289;45.602;11.904;2022-12-18T03:46:39;12.07;;;6.00;;
64816;SDS011;53289;45.602;11.904;2022-12-18T03:49:07;8.90;;;5.60;;
64816;SDS011;53289;45.602;11.904;2022-12-18T03:54:37;13.02;;;6.68;;
64816;SDS011;53289;45.602;11.904;2022-12-18T03:57:19;10.75;;;6.38;;
64816;SDS011;53289;45.602;11.904;2022-12-18T03:59:49;10.82;;;5.93;;
64816;SDS011;53289;45.602;11.904;2022-12-18T04:02:19;11.40;;;6.45;;
64816;SDS011;53289;45.602;11.904;2022-12-18T04:04:48;11.32;;;6.50;;
64816;SDS011;53289;45.602;11.904;2022-12-18T04:07:22;10.15;;;5.30;;
64816;SDS011;53289;45.602;11.904;2022-12-18T04:09:49;12.63;;;6.68;;
64816;SDS011;53289;45.602;11.904;2022-12-18T04:12:17;9.90;;;5.63;;
64816;SDS011;53289;45.602;11.904;2022-12-18T04:14:44;12.30;;;6.85;;
64816;SDS011;53289;45.602;11.904;2022-12-18T04:17:10;13.63;;;7.05;;
64816;SDS011;53289;45.602;11.904;2022-12-18T04:19:36;10.60;;;5.80;;
64816;SDS011;53289;45.602;11.904;2022-12-18T04:22:01;12.70;;;6.68;;
64816;SDS011;53289;45.602;11.904;2022-12-18T04:24:28;13.27;;;6.90;;
64816;SDS011;53289;45.602;11.904;2022-12-18T04:26:54;13.23;;;7.22;;
64816;SDS011;53289;45.602;11.904;2022-12-18T04:29:20;12.10;;;6.68;;
64816;SDS011;53289;45.602;11.904;2022-12-18T04:31:46;12.68;;;6.43;;
64816;SDS011;53289;45.602;11.904;2022-12-18T04:34:11;13.43;;;7.03;;
64816;SDS011;53289;45.602;11.904;2022-12-18T04:36:37;12.30;;;6.78;;
64816;SDS011;53289;45.602;11.904;2022-12-18T04:39:03;11.10;;;6.35;;
64816;SDS011;53289;45.602;11.904;2022-12-18T04:41:29;12.07;;;6.65;;
64816;SDS011;53289;45.602;11.904;2022-12-18T04:43:55;13.85;;;6.70;;
64816;SDS011;53289;45.602;11.904;2022-12-18T04:46:21;11.38;;;6.53;;
64816;SDS011;53289;45.602;11.904;2022-12-18T04:48:47;12.38;;;6.60;;
64816;SDS011;53289;45.602;11.904;2022-12-18T04:51:13;12.43;;;7.00;;
64816;SDS011;53289;45.602;11.904;2022-12-18T04:53:40;14.45;;;7.50;;
64816;SDS011;53289;45.602;11.904;2022-12-18T04:56:09;13.18;;;7.70;;
64816;SDS011;53289;45.602;11.904;2022-12-18T04:58:38;12.05;;;6.90;;
64816;SDS011;53289;45.602;11.904;2022-12-18T05:01:06;12.60;;;6.65;;
64816;SDS011;53289;45.602;11.904;2022-12-18T05:03:33;12.35;;;6.82;;
64816;SDS011;53289;45.602;11.904;2022-12-18T05:05:59;12.82;;;7.20;;
64816;SDS011;53289;45.602;11.904;2022-12-18T05:08:26;12.93;;;6.53;;
64816;SDS011;53289;45.602;11.904;2022-12-18T05:11:08;11.18;;;6.63;;
64816;SDS011;53289;45.602;11.904;2022-12-18T05:13:35;11.43;;;7.63;;
64816;SDS011;53289;45.602;11.904;2022-12-18T05:16:01;14.07;;;7.40;;
64816;SDS011;53289;45.602;11.904;2022-12-18T05:18:28;11.73;;;6.00;;
64816;SDS011;53289;45.602;11.904;2022-12-18T05:20:54;12.77;;;6.72;;
64816;SDS011;53289;45.602;11.904;2022-12-18T05:23:20;13.80;;;7.05;;
64816;SDS011;53289;45.602;11.904;2022-12-18T05:25:57;15.48;;;7.22;;
64816;SDS011;53289;45.602;11.904;2022-12-18T05:28:25;12.50;;;6.60;;
64816;SDS011;53289;45.602;11.904;2022-12-18T05:30:54;13.43;;;7.25;;
64816;SDS011;53289;45.602;11.904;2022-12-18T05:33:22;14.85;;;7.07;;
64816;SDS011;53289;45.602;11.904;2022-12-18T05:35:53;12.85;;;6.93;;
64816;SDS011;53289;45.602;11.904;2022-12-18T05:38:20;11.80;;;6.65;;
64816;SDS011;53289;45.602;11.904;2022-12-18T05:40:47;10.68;;;6.22;;
64816;SDS011;53289;45.602;11.904;2022-12-18T05:43:14;12.45;;;6.57;;
64816;SDS011;53289;45.602;11.904;2022-12-18T05:45:40;12.77;;;7.05;;
64816;SDS011;53289;45.602;11.904;2022-12-18T05:48:07;16.55;;;8.18;;
64816;SDS011;53289;45.602;11.904;2022-12-18T05:50:34;15.30;;;8.38;;
64816;SDS011;53289;45.602;11.904;2022-12-18T05:53:01;12.80;;;6.95;;
64816;SDS011;53289;45.602;11.904;2022-12-18T05:55:28;14.48;;;6.93;;
64816;SDS011;53289;45.602;11.904;2022-12-18T05:57:57;14.20;;;7.65;;
64816;SDS011;53289;45.602;11.904;2022-12-18T06:00:24;15.15;;;8.10;;
64816;SDS011;53289;45.602;11.904;2022-12-18T06:02:50;13.02;;;7.38;;
64816;SDS011;53289;45.602;11.904;2022-12-18T06:05:16;11.90;;;6.25;;
64816;SDS011;53289;45.602;11.904;2022-12-18T06:07:42;11.85;;;7.00;;
64816;SDS011;53289;45.602;11.904;2022-12-18T06:10:08;11.82;;;6.65;;
64816;SDS011;53289;45.602;11.904;2022-12-18T06:12:34;13.50;;;7.47;;
64816;SDS011;53289;45.602;11.904;2022-12-18T06:15:00;12.95;;;7.55;;
64816;SDS011;53289;45.602;11.904;2022-12-18T06:17:29;13.85;;;7.55;;
64816;SDS011;53289;45.602;11.904;2022-12-18T06:19:56;13.38;;;7.82;;
64816;SDS011;53289;45.602;11.904;2022-12-18T06:22:22;13.90;;;6.78;;
64816;SDS011;53289;45.602;11.904;2022-12-18T06:24:48;13.73;;;7.45;;
64816;SDS011;53289;45.602;11.904;2022-12-18T06:27:14;13.05;;;7.35;;
64816;SDS011;53289;45.602;11.904;2022-12-18T06:29:40;14.77;;;7.22;;
64816;SDS011;53289;45.602;11.904;2022-12-18T06:32:06;13.40;;;7.55;;
64816;SDS011;53289;45.602;11.904;2022-12-18T06:34:32;15.75;;;7.65;;
64816;SDS011;53289;45.602;11.904;2022-12-18T06:36:59;14.75;;;7.75;;
64816;SDS011;53289;45.602;11.904;2022-12-18T06:39:27;16.80;;;8.35;;
64816;SDS011;53289;45.602;11.904;2022-12-18T06:41:53;15.32;;;7.85;;
64816;SDS011;53289;45.602;11.904;2022-12-18T06:44:19;14.60;;;8.15;;
64816;SDS011;53289;45.602;11.904;2022-12-18T06:46:45;11.80;;;7.18;;
64816;SDS011;53289;45.602;11.904;2022-12-18T06:49:11;12.63;;;7.13;;
64816;SDS011;53289;45.602;11.904;2022-12-18T06:51:37;13.23;;;6.97;;
64816;SDS011;53289;45.602;11.904;2022-12-18T06:54:04;14.80;;;7.35;;
64816;SDS011;53289;45.602;11.904;2022-12-18T06:56:30;13.73;;;7.57;;
64816;SDS011;53289;45.602;11.904;2022-12-18T06:58:56;14.32;;;8.05;;
64816;SDS011;53289;45.602;11.904;2022-12-18T07:01:22;12.90;;;7.35;;
64816;SDS011;53289;45.602;11.904;2022-12-18T07:03:51;14.20;;;7.20;;
64816;SDS011;53289;45.602;11.904;2022-12-18T07:06:21;14.07;;;7.13;;
64816;SDS011;53289;45.602;11.904;2022-12-18T07:08:49;16.73;;;8.48;;
64816;SDS011;53289;45.602;11.904;2022-12-18T07:11:16;16.42;;;9.05;;
64816;SDS011;53289;45.602;11.904;2022-12-18T07:13:43;15.68;;;8.23;;
64816;SDS011;53289;45.602;11.904;2022-12-18T07:16:13;18.13;;;8.40;;
64816;SDS011;53289;45.602;11.904;2022-12-18T07:18:40;20.10;;;10.73;;
64816;SDS011;53289;45.602;11.904;2022-12-18T07:21:07;17.88;;;9.55;;
64816;SDS011;53289;45.602;11.904;2022-12-18T07:23:34;14.98;;;8.75;;
64816;SDS011;53289;45.602;11.904;2022-12-18T07:26:02;14.75;;;8.50;;
64816;SDS011;53289;45.602;11.904;2022-12-18T07:28:28;14.63;;;7.97;;
64816;SDS011;53289;45.602;11.904;2022-12-18T07:30:54;16.40;;;8.90;;
64816;SDS011;53289;45.602;11.904;2022-12-18T07:33:20;15.90;;;9.00;;
64816;SDS011;53289;45.602;11.904;2022-12-18T07:35:46;18.83;;;9.48;;
64816;SDS011;53289;45.602;11.904;2022-12-18T07:38:12;15.95;;;8.30;;
64816;SDS011;53289;45.602;11.904;2022-12-18T07:40:38;15.60;;;8.02;;
64816;SDS011;53289;45.602;11.904;2022-12-18T07:43:04;16.48;;;8.82;;
64816;SDS011;53289;45.602;11.904;2022-12-18T07:45:30;13.90;;;8.05;;
64816;SDS011;53289;45.602;11.904;2022-12-18T07:47:56;14.55;;;8.23;;
64816;SDS011;53289;45.602;11.904;2022-12-18T07:50:22;15.38;;;8.45;;
64816;SDS011;53289;45.602;11.904;2022-12-18T07:52:49;16.75;;;9.57;;
64816;SDS011;53289;45.602;11.904;2022-12-18T07:55:15;16.83;;;8.38;;
64816;SDS011;53289;45.602;11.904;2022-12-18T07:57:41;16.75;;;8.20;;
64816;SDS011;53289;45.602;11.904;2022-12-18T08:00:07;21.30;;;8.48;;
64816;SDS011;53289;45.602;11.904;2022-12-18T08:02:33;15.20;;;8.38;;
64816;SDS011;53289;45.602;11.904;2022-12-18T08:04:59;16.27;;;8.93;;
64816;SDS011;53289;45.602;11.904;2022-12-18T08:07:25;15.00;;;8.80;;
64816;SDS011;53289;45.602;11.904;2022-12-18T08:09:51;14.60;;;8.40;;
64816;SDS011;53289;45.602;11.904;2022-12-18T08:12:18;15.57;;;8.43;;
64816;SDS011;53289;45.602;11.904;2022-12-18T08:14:44;14.23;;;8.55;;
64816;SDS011;53289;45.602;11.904;2022-12-18T08:17:10;15.07;;;8.23;;
64816;SDS011;53289;45.602;11.904;2022-12-18T08:19:36;16.77;;;9.35;;
64816;SDS011;53289;45.602;11.904;2022-12-18T08:22:02;16.92;;;8.68;;
64816;SDS011;53289;45.602;11.904;2022-12-18T08:24:28;16.25;;;8.90;;
64816;SDS011;53289;45.602;11.904;2022-12-18T08:26:53;15.20;;;8.63;;
64816;SDS011;53289;45.602;11.904;2022-12-18T08:29:19;15.27;;;9.20;;
64816;SDS011;53289;45.602;11.904;2022-12-18T08:31:45;16.38;;;9.18;;
64816;SDS011;53289;45.602;11.904;2022-12-18T08:34:11;16.70;;;8.85;;
64816;SDS011;53289;45.602;11.904;2022-12-18T08:36:37;15.35;;;8.65;;
64816;SDS011;53289;45.602;11.904;2022-12-18T08:39:03;14.15;;;8.15;;
64816;SDS011;53289;45.602;11.904;2022-12-18T08:41:29;14.73;;;8.05;;
64816;SDS011;53289;45.602;11.904;2022-12-18T08:43:54;15.57;;;9.43;;
64816;SDS011;53289;45.602;11.904;2022-12-18T08:46:40;14.93;;;8.50;;
64816;SDS011;53289;45.602;11.904;2022-12-18T08:49:07;18.75;;;9.88;;
64816;SDS011;53289;45.602;11.904;2022-12-18T08:51:34;15.32;;;8.52;;
64816;SDS011;53289;45.602;11.904;2022-12-18T08:54:00;20.20;;;10.38;;
64816;SDS011;53289;45.602;11.904;2022-12-18T08:56:27;16.65;;;8.68;;
64816;SDS011;53289;45.602;11.904;2022-12-18T08:58:53;18.83;;;9.88;;
64816;SDS011;53289;45.602;11.904;2022-12-18T09:01:20;16.88;;;9.00;;
64816;SDS011;53289;45.602;11.904;2022-12-18T09:03:46;20.85;;;9.65;;
64816;SDS011;53289;45.602;11.904;2022-12-18T09:06:13;19.45;;;10.15;;
64816;SDS011;53289;45.602;11.904;2022-12-18T09:08:41;16.90;;;9.70;;
64816;SDS011;53289;45.602;11.904;2022-12-18T09:11:12;14.40;;;9.05;;
64816;SDS011;53289;45.602;11.904;2022-12-18T09:13:40;16.30;;;9.25;;
64816;SDS011;53289;45.602;11.904;2022-12-18T09:16:07;17.83;;;8.68;;
64816;SDS011;53289;45.602;11.904;2022-12-18T09:18:32;15.05;;;8.52;;
64816;SDS011;53289;45.602;11.904;2022-12-18T09:20:58;17.52;;;9.13;;
64816;SDS011;53289;45.602;11.904;2022-12-18T09:23:24;19.02;;;9.85;;
64816;SDS011;53289;45.602;11.904;2022-12-18T09:25:50;19.88;;;10.63;;
64816;SDS011;53289;45.602;11.904;2022-12-18T09:28:17;18.77;;;10.65;;
64816;SDS011;53289;45.602;11.904;2022-12-18T09:30:47;17.73;;;10.43;;
64816;SDS011;53289;45.602;11.904;2022-12-18T09:33:14;16.85;;;9.80;;
64816;SDS011;53289;45.602;11.904;2022-12-18T09:35:41;17.05;;;9.95;;
64816;SDS011;53289;45.602;11.904;2022-12-18T09:38:09;16.40;;;8.75;;
64816;SDS011;53289;45.602;11.904;2022-12-18T09:43:40;13.25;;;7.70;;
64816;SDS011;53289;45.602;11.904;2022-12-18T09:46:19;12.18;;;7.20;;
64816;SDS011;53289;45.602;11.904;2022-12-18T09:49:00;14.05;;;7.75;;
64816;SDS011;53289;45.602;11.904;2022-12-18T09:51:37;12.70;;;7.20;;
64816;SDS011;53289;45.602;11.904;2022-12-18T09:54:15;15.45;;;7.70;;
64816;SDS011;53289;45.602;11.904;2022-12-18T09:56:45;14.52;;;7.97;;
64816;SDS011;53289;45.602;11.904;2022-12-18T09:59:18;12.32;;;7.40;;
64816;SDS011;53289;45.602;11.904;2022-12-18T10:01:50;12.13;;;7.25;;
64816;SDS011;53289;45.602;11.904;2022-12-18T10:04:16;14.80;;;7.75;;
64816;SDS011;53289;45.602;11.904;2022-12-18T10:12:32;14.95;;;7.88;;
64816;SDS011;53289;45.602;11.904;2022-12-18T10:15:07;11.52;;;7.47;;
64816;SDS011;53289;45.602;11.904;2022-12-18T10:20:25;15.47;;;9.00;;
64816;SDS011;53289;45.602;11.904;2022-12-18T10:26:11;14.85;;;9.05;;
64816;SDS011;53289;45.602;11.904;2022-12-18T10:28:40;14.77;;;9.10;;
64816;SDS011;53289;45.602;11.904;2022-12-18T10:31:07;12.35;;;7.78;;
64816;SDS011;53289;45.602;11.904;2022-12-18T10:33:43;12.57;;;7.82;;
64816;SDS011;53289;45.602;11.904;2022-12-18T10:36:09;14.40;;;8.90;;
64816;SDS011;53289;45.602;11.904;2022-12-18T10:38:36;15.13;;;8.93;;
64816;SDS011;53289;45.602;11.904;2022-12-18T10:43:36;15.00;;;8.35;;
64816;SDS011;53289;45.602;11.904;2022-12-18T10:51:04;13.07;;;7.57;;
64816;SDS011;53289;45.602;11.904;2022-12-18T10:53:32;13.52;;;8.70;;
64816;SDS011;53289;45.602;11.904;2022-12-18T10:56:02;12.73;;;7.32;;
64816;SDS011;53289;45.602;11.904;2022-12-18T11:03:43;12.43;;;7.90;;
64816;SDS011;53289;45.602;11.904;2022-12-18T11:06:17;14.32;;;7.78;;
64816;SDS011;53289;45.602;11.904;2022-12-18T11:08:57;12.57;;;7.28;;
64816;SDS011;53289;45.602;11.904;2022-12-18T11:11:28;12.35;;;7.75;;
64816;SDS011;53289;45.602;11.904;2022-12-18T11:16:28;12.10;;;7.50;;
64816;SDS011;53289;45.602;11.904;2022-12-18T11:19:10;14.02;;;8.68;;
64816;SDS011;53289;45.602;11.904;2022-12-18T11:21:40;11.93;;;7.43;;
64816;SDS011;53289;45.602;11.904;2022-12-18T11:24:07;13.63;;;8.52;;
64816;SDS011;53289;45.602;11.904;2022-12-18T11:26:46;17.27;;;9.80;;
64816;SDS011;53289;45.602;11.904;2022-12-18T11:29:16;16.20;;;9.35;;
64816;SDS011;53289;45.602;11.904;2022-12-18T11:31:47;14.65;;;9.25;;
64816;SDS011;53289;45.602;11.904;2022-12-18T11:34:31;15.02;;;8.57;;
64816;SDS011;53289;45.602;11.904;2022-12-18T11:42:01;13.30;;;7.68;;
64816;SDS011;53289;45.602;11.904;2022-12-18T11:44:42;13.63;;;7.85;;
64816;SDS011;53289;45.602;11.904;2022-12-18T11:49:56;13.65;;;8.57;;
64816;SDS011;53289;45.602;11.904;2022-12-18T11:55:16;13.65;;;8.32;;
64816;SDS011;53289;45.602;11.904;2022-12-18T11:57:57;10.93;;;6.60;;
64816;SDS011;53289;45.602;11.904;2022-12-18T12:00:26;12.50;;;8.15;;
64816;SDS011;53289;45.602;11.904;2022-12-18T12:08:26;14.25;;;8.35;;
64816;SDS011;53289;45.602;11.904;2022-12-18T12:11:33;12.70;;;8.10;;
64816;SDS011;53289;45.602;11.904;2022-12-18T12:14:19;13.35;;;7.97;;
64816;SDS011;53289;45.602;11.904;2022-12-18T12:19:43;13.02;;;7.55;;
64816;SDS011;53289;45.602;11.904;2022-12-18T12:33:20;12.00;;;7.47;;
64816;SDS011;53289;45.602;11.904;2022-12-18T12:36:10;11.30;;;7.05;;
64816;SDS011;53289;45.602;11.904;2022-12-18T12:41:26;13.32;;;7.30;;
64816;SDS011;53289;45.602;11.904;2022-12-18T12:44:17;10.95;;;7.07;;
64816;SDS011;53289;45.602;11.904;2022-12-18T12:46:48;11.63;;;7.38;;
64816;SDS011;53289;45.602;11.904;2022-12-18T12:49:18;11.70;;;7.28;;
64816;SDS011;53289;45.602;11.904;2022-12-18T12:52:26;12.02;;;7.65;;
64816;SDS011;53289;45.602;11.904;2022-12-18T12:54:52;12.50;;;7.93;;
64816;SDS011;53289;45.602;11.904;2022-12-18T12:57:30;12.60;;;8.10;;
64816;SDS011;53289;45.602;11.904;2022-12-18T13:07:53;11.20;;;6.82;;
64816;SDS011;53289;45.602;11.904;2022-12-18T13:10:36;14.30;;;8.32;;
64816;SDS011;53289;45.602;11.904;2022-12-18T13:15:41;9.70;;;6.18;;
64816;SDS011;53289;45.602;11.904;2022-12-18T13:18:18;10.65;;;6.00;;
64816;SDS011;53289;45.602;11.904;2022-12-18T13:25:54;11.75;;;7.25;;
64816;SDS011;53289;45.602;11.904;2022-12-18T13:28:21;11.45;;;6.88;;
64816;SDS011;53289;45.602;11.904;2022-12-18T13:31:06;11.30;;;6.38;;
64816;SDS011;53289;45.602;11.904;2022-12-18T13:33:39;11.13;;;6.78;;
64816;SDS011;53289;45.602;11.904;2022-12-18T13:38:47;12.73;;;7.68;;
64816;SDS011;53289;45.602;11.904;2022-12-18T13:41:42;10.15;;;6.43;;
64816;SDS011;53289;45.602;11.904;2022-12-18T13:44:25;11.60;;;6.45;;
64816;SDS011;53289;45.602;11.904;2022-12-18T13:46:51;14.90;;;7.80;;
64816;SDS011;53289;45.602;11.904;2022-12-18T13:51:48;13.55;;;8.35;;
64816;SDS011;53289;45.602;11.904;2022-12-18T13:54:30;11.35;;;7.25;;
64816;SDS011;53289;45.602;11.904;2022-12-18T13:57:01;10.85;;;7.25;;
64816;SDS011;53289;45.602;11.904;2022-12-18T13:59:37;11.45;;;6.93;;
64816;SDS011;53289;45.602;11.904;2022-12-18T14:02:14;12.63;;;7.18;;
64816;SDS011;53289;45.602;11.904;2022-12-18T14:04:44;12.00;;;7.72;;
64816;SDS011;53289;45.602;11.904;2022-12-18T14:07:12;12.00;;;7.97;;
64816;SDS011;53289;45.602;11.904;2022-12-18T14:09:44;10.93;;;7.18;;
64816;SDS011;53289;45.602;11.904;2022-12-18T14:12:17;11.18;;;7.13;;
64816;SDS011;53289;45.602;11.904;2022-12-18T14:20:47;12.93;;;8.10;;
64816;SDS011;53289;45.602;11.904;2022-12-18T14:26:20;9.90;;;6.10;;
64816;SDS011;53289;45.602;11.904;2022-12-18T14:28:57;9.45;;;6.30;;
64816;SDS011;53289;45.602;11.904;2022-12-18T14:31:43;11.23;;;6.95;;
64816;SDS011;53289;45.602;11.904;2022-12-18T14:34:18;10.43;;;6.90;;
64816;SDS011;53289;45.602;11.904;2022-12-18T14:36:53;9.70;;;6.07;;
64816;SDS011;53289;45.602;11.904;2022-12-18T14:39:21;10.95;;;6.40;;
64816;SDS011;53289;45.602;11.904;2022-12-18T14:41:50;12.80;;;8.00;;
64816;SDS011;53289;45.602;11.904;2022-12-18T14:44:16;11.00;;;6.68;;
64816;SDS011;53289;45.602;11.904;2022-12-18T14:46:43;12.52;;;7.63;;
64816;SDS011;53289;45.602;11.904;2022-12-18T14:49:24;12.23;;;7.63;;
64816;SDS011;53289;45.602;11.904;2022-12-18T14:51:55;10.38;;;6.28;;
64816;SDS011;53289;45.602;11.904;2022-12-18T14:54:24;10.95;;;7.18;;
64816;SDS011;53289;45.602;11.904;2022-12-18T14:57:27;10.65;;;6.88;;
64816;SDS011;53289;45.602;11.904;2022-12-18T15:00:02;12.25;;;7.68;;
64816;SDS011;53289;45.602;11.904;2022-12-18T15:02:30;12.77;;;7.72;;
64816;SDS011;53289;45.602;11.904;2022-12-18T15:05:00;12.75;;;7.93;;
64816;SDS011;53289;45.602;11.904;2022-12-18T15:07:39;14.60;;;8.27;;
64816;SDS011;53289;45.602;11.904;2022-12-18T15:10:17;14.30;;;8.43;;
64816;SDS011;53289;45.602;11.904;2022-12-18T15:13:06;12.05;;;7.60;;
64816;SDS011;53289;45.602;11.904;2022-12-18T15:20:32;11.75;;;7.30;;
64816;SDS011;53289;45.602;11.904;2022-12-18T15:23:16;13.40;;;7.88;;
64816;SDS011;53289;45.602;11.904;2022-12-18T15:26:08;12.60;;;7.70;;
64816;SDS011;53289;45.602;11.904;2022-12-18T15:28:45;13.80;;;8.98;;
64816;SDS011;53289;45.602;11.904;2022-12-18T15:33:43;12.15;;;7.32;;
64816;SDS011;53289;45.602;11.904;2022-12-18T15:36:15;18.73;;;10.15;;
64816;SDS011;53289;45.602;11.904;2022-12-18T15:38:51;18.55;;;10.40;;
64816;SDS011;53289;45.602;11.904;2022-12-18T15:41:20;16.42;;;10.02;;
64816;SDS011;53289;45.602;11.904;2022-12-18T15:43:48;18.85;;;10.15;;
64816;SDS011;53289;45.602;11.904;2022-12-18T15:46:16;16.23;;;9.55;;
64816;SDS011;53289;45.602;11.904;2022-12-18T15:48:50;16.90;;;9.18;;
64816;SDS011;53289;45.602;11.904;2022-12-18T15:51:18;19.00;;;9.60;;
64816;SDS011;53289;45.602;11.904;2022-12-18T15:53:49;20.30;;;10.30;;
64816;SDS011;53289;45.602;11.904;2022-12-18T15:56:19;19.63;;;9.50;;
64816;SDS011;53289;45.602;11.904;2022-12-18T15:59:24;15.70;;;9.20;;
64816;SDS011;53289;45.602;11.904;2022-12-18T16:01:50;15.77;;;9.32;;
64816;SDS011;53289;45.602;11.904;2022-12-18T16:04:18;17.23;;;9.43;;
64816;SDS011;53289;45.602;11.904;2022-12-18T16:06:45;19.40;;;9.95;;
64816;SDS011;53289;45.602;11.904;2022-12-18T16:09:12;15.98;;;9.60;;
64816;SDS011;53289;45.602;11.904;2022-12-18T16:11:39;17.75;;;8.88;;
64816;SDS011;53289;45.602;11.904;2022-12-18T16:16:46;18.98;;;9.85;;
64816;SDS011;53289;45.602;11.904;2022-12-18T16:19:13;23.80;;;12.27;;
64816;SDS011;53289;45.602;11.904;2022-12-18T16:21:39;25.40;;;12.85;;
64816;SDS011;53289;45.602;11.904;2022-12-18T16:24:05;28.08;;;14.43;;
64816;SDS011;53289;45.602;11.904;2022-12-18T16:26:39;22.27;;;11.98;;
64816;SDS011;53289;45.602;11.904;2022-12-18T16:29:07;19.38;;;10.93;;
64816;SDS011;53289;45.602;11.904;2022-12-18T16:31:33;21.85;;;11.80;;
64816;SDS011;53289;45.602;11.904;2022-12-18T16:34:12;22.10;;;11.40;;
64816;SDS011;53289;45.602;11.904;2022-12-18T16:36:49;18.70;;;9.23;;
64816;SDS011;53289;45.602;11.904;2022-12-18T16:39:15;22.95;;;11.77;;
64816;SDS011;53289;45.602;11.904;2022-12-18T16:41:42;19.95;;;11.65;;
64816;SDS011;53289;45.602;11.904;2022-12-18T16:44:08;21.90;;;11.77;;
64816;SDS011;53289;45.602;11.904;2022-12-18T16:46:35;20.85;;;11.52;;
64816;SDS011;53289;45.602;11.904;2022-12-18T16:49:02;20.27;;;10.35;;